createdAt,value
2022-11-24T00:04:04.474Z,0.21
2022-11-24T00:09:06.780Z,0.06
2022-11-24T00:14:08.856Z,0.02
2022-11-24T00:19:12.009Z,-0.04
2022-11-24T00:24:16.411Z,-0.07
2022-11-24T00:29:18.181Z,-0.11
2022-11-24T00:34:19.827Z,-0.16
2022-11-24T00:39:21.501Z,-0.20
2022-11-24T00:44:23.274Z,-0.30
2022-11-24T00:49:24.949Z,-0.24
2022-11-24T00:54:26.558Z,-0.28
2022-11-24T00:59:28.259Z,-0.41
2022-11-24T01:04:29.913Z,-0.44
2022-11-24T01:09:31.528Z,-0.48
2022-11-24T01:14:33.848Z,-0.62
2022-11-24T01:19:35.688Z,-0.59
2022-11-24T01:24:37.383Z,-0.66
2022-11-24T01:29:39.143Z,-0.80
2022-11-24T01:34:40.832Z,-0.81
2022-11-24T01:39:42.527Z,-0.76
2022-11-24T01:44:44.350Z,-0.78
2022-11-24T01:49:52.034Z,-0.77
2022-11-24T01:54:55.754Z,-0.76
2022-11-24T02:00:04.147Z,-0.79
2022-11-24T02:05:20.503Z,-0.89
2022-11-24T02:10:22.491Z,-0.90
2022-11-24T02:15:24.364Z,-0.88
2022-11-24T02:20:26.545Z,-0.99
2022-11-24T02:25:56.515Z,-0.90
2022-11-24T02:30:59.354Z,-0.98
2022-11-24T02:36:01.091Z,-0.92
2022-11-24T02:41:11.509Z,-0.99
2022-11-24T02:46:13.246Z,-1.02
2022-11-24T02:51:15.064Z,-0.99
2022-11-24T02:56:16.736Z,-1.10
2022-11-24T03:01:18.415Z,-1.01
2022-11-24T03:06:20.129Z,-1.07
2022-11-24T03:11:21.797Z,-1.04
2022-11-24T03:16:23.815Z,-1.08
2022-11-24T03:21:25.466Z,-1.05
2022-11-24T03:26:28.016Z,-1.07
2022-11-24T03:31:29.729Z,-1.18
2022-11-24T03:36:31.515Z,-1.18
2022-11-24T03:41:33.355Z,-1.18
2022-11-24T03:46:35.244Z,-1.12
2022-11-24T03:51:37.002Z,-1.03
2022-11-24T03:56:38.597Z,-0.98
2022-11-24T04:01:40.307Z,-0.99
2022-11-24T04:06:42.032Z,-1.00
2022-11-24T04:12:02.285Z,-0.98
2022-11-24T04:17:04.333Z,-1.08
2022-11-24T04:22:06.102Z,-1.15
2022-11-24T04:27:07.791Z,-0.93
2022-11-24T04:32:12.351Z,-0.90
2022-11-24T04:37:14.079Z,-0.97
2022-11-24T04:42:16.013Z,-0.92
2022-11-24T04:47:22.801Z,-0.88
2022-11-24T04:52:25.595Z,-0.85
2022-11-24T04:57:27.682Z,-0.79
2022-11-24T05:02:29.363Z,-0.72
2022-11-24T05:07:31.240Z,-0.41
2022-11-24T05:12:33.688Z,-0.32
2022-11-24T05:17:37.522Z,-0.25
2022-11-24T05:22:39.212Z,-0.19
2022-11-24T05:27:41.125Z,-0.01
2022-11-24T05:32:42.823Z,0.09
2022-11-24T05:37:44.685Z,0.09
2022-11-24T05:42:48.215Z,0.16
2022-11-24T05:47:51.463Z,0.18
2022-11-24T05:52:53.127Z,0.25
2022-11-24T05:57:59.311Z,0.28
2022-11-24T06:03:01.399Z,0.30
2022-11-24T06:08:03.243Z,0.34
2022-11-24T06:13:06.612Z,0.39
2022-11-24T06:18:08.282Z,0.39
2022-11-24T06:23:10.245Z,0.45
2022-11-24T06:28:12.399Z,0.47
2022-11-24T06:33:14.402Z,0.52
2022-11-24T06:38:20.133Z,0.56
2022-11-24T06:43:27.500Z,0.69
2022-11-24T06:48:29.901Z,0.84
2022-11-24T06:53:38.551Z,0.98
2022-11-24T06:58:42.062Z,1.09
2022-11-24T07:03:43.754Z,1.15
2022-11-24T07:08:46.044Z,1.21
2022-11-24T07:13:48.079Z,1.22
2022-11-24T07:18:51.360Z,1.28
2022-11-24T07:23:55.035Z,1.28
2022-11-24T07:28:56.708Z,1.33
2022-11-24T07:33:58.458Z,1.34
2022-11-24T07:39:00.268Z,1.39
2022-11-24T07:44:02.383Z,1.42
2022-11-24T07:49:04.158Z,1.47
2022-11-24T07:54:05.931Z,1.50
2022-11-24T07:59:07.859Z,1.58
2022-11-24T08:04:09.624Z,1.65
2022-11-24T08:09:11.604Z,1.77
2022-11-24T08:14:13.271Z,1.94
2022-11-24T08:19:15.025Z,2.09
2022-11-24T08:24:17.151Z,2.13
2022-11-24T08:29:18.820Z,2.21
2022-11-24T08:34:20.509Z,2.29
2022-11-24T08:39:22.225Z,2.36
2022-11-24T08:44:24.245Z,2.46
2022-11-24T08:49:26.089Z,2.48
2022-11-24T08:54:28.072Z,2.53
2022-11-24T08:59:29.715Z,2.52
2022-11-24T09:04:31.575Z,2.56
2022-11-24T09:09:33.432Z,2.54
2022-11-24T09:14:35.228Z,2.60
2022-11-24T09:19:37.271Z,2.62
2022-11-24T09:24:38.904Z,2.69
2022-11-24T09:29:40.544Z,2.78
2022-11-24T09:34:42.216Z,2.89
2022-11-24T09:39:43.944Z,3.02
2022-11-24T09:45:10.603Z,3.26
2022-11-24T09:50:18.607Z,3.35
2022-11-24T09:55:35.621Z,3.38
2022-11-24T10:00:37.491Z,3.40
2022-11-24T10:05:39.287Z,3.38
2022-11-24T10:10:52.364Z,3.43
2022-11-24T10:15:57.063Z,3.41
2022-11-24T10:21:10.762Z,3.43
2022-11-24T10:26:30.239Z,3.53
2022-11-24T10:31:43.371Z,3.56
2022-11-24T10:36:55.191Z,3.58
2022-11-24T10:42:19.654Z,3.60
2022-11-24T10:47:22.823Z,3.60
2022-11-24T10:52:25.388Z,3.61
2022-11-24T10:57:31.689Z,3.69
2022-11-24T11:02:40.255Z,3.76
2022-11-24T11:07:41.998Z,3.76
2022-11-24T11:12:45.008Z,3.92
2022-11-24T11:17:46.999Z,4.14
2022-11-24T11:22:50.379Z,4.52
2022-11-24T11:28:22.375Z,4.76
2022-11-24T11:38:49.557Z,4.85
2022-11-24T11:44:00.618Z,4.77
2022-11-24T11:49:02.831Z,4.60
2022-11-24T11:54:13.455Z,4.53
2022-11-24T11:59:34.868Z,4.62
2022-11-24T12:04:48.655Z,4.66
2022-11-24T12:10:18.153Z,4.70
2022-11-24T12:15:44.459Z,4.72
2022-11-24T12:20:58.527Z,4.82
2022-11-24T12:26:17.234Z,4.85
2022-11-24T12:31:52.814Z,4.93
2022-11-24T12:37:17.677Z,4.95
2022-11-24T12:42:30.304Z,4.99
2022-11-24T12:47:58.911Z,5.07
2022-11-24T12:53:05.170Z,5.17
2022-11-24T12:58:34.926Z,5.27
2022-11-24T13:04:00.756Z,5.32
2022-11-24T13:09:10.493Z,5.47
2022-11-24T13:14:16.820Z,5.58
2022-11-24T13:19:29.602Z,5.62
2022-11-24T13:24:34.540Z,5.70
2022-11-24T13:29:37.683Z,5.66
2022-11-24T13:34:39.450Z,5.69
2022-11-24T13:39:51.234Z,5.71
2022-11-24T13:44:55.659Z,5.65
2022-11-24T13:49:57.748Z,5.54
2022-11-24T13:54:59.491Z,5.43
2022-11-24T14:00:04.739Z,5.32
2022-11-24T14:05:06.341Z,5.28
2022-11-24T14:10:15.740Z,5.26
2022-11-24T14:15:25.851Z,5.29
2022-11-24T14:20:28.425Z,5.39
2022-11-24T14:25:31.603Z,5.43
2022-11-24T14:30:33.310Z,5.51
2022-11-24T14:35:35.757Z,5.54
2022-11-24T14:40:48.438Z,5.55
2022-11-24T14:45:52.012Z,5.54
2022-11-24T14:50:55.738Z,5.50
2022-11-24T14:56:08.638Z,5.42
2022-11-24T15:01:20.832Z,5.36
2022-11-24T15:06:22.553Z,5.32
2022-11-24T15:11:24.186Z,5.31
2022-11-24T15:16:27.813Z,5.29
2022-11-24T15:21:33.782Z,5.27
2022-11-24T15:26:41.459Z,5.26
2022-11-24T15:31:47.937Z,5.27
2022-11-24T15:36:54.018Z,5.31
2022-11-24T15:41:55.715Z,5.34
2022-11-24T15:46:57.587Z,5.37
2022-11-24T15:52:00.025Z,5.37
2022-11-24T15:57:01.768Z,5.30
2022-11-24T16:02:03.508Z,5.23
2022-11-24T16:07:06.788Z,5.14
2022-11-24T16:12:08.537Z,5.04
2022-11-24T16:17:10.213Z,4.93
2022-11-24T16:22:11.937Z,4.88
2022-11-24T16:27:13.574Z,4.74
2022-11-24T16:32:15.268Z,4.64
2022-11-24T16:37:16.925Z,4.66
2022-11-24T16:42:18.614Z,4.59
2022-11-24T16:47:20.453Z,4.56
2022-11-24T16:52:22.232Z,4.58
2022-11-24T16:57:23.871Z,4.63
2022-11-24T17:02:25.897Z,4.76
2022-11-24T17:07:27.843Z,4.82
2022-11-24T17:12:29.523Z,4.89
2022-11-24T17:17:31.277Z,4.94
2022-11-24T17:22:32.928Z,4.96
2022-11-24T17:27:34.615Z,4.94
2022-11-24T17:32:36.268Z,4.94
2022-11-24T17:37:38.128Z,4.93
2022-11-24T17:42:39.799Z,4.90
2022-11-24T17:47:41.480Z,4.87
2022-11-24T17:52:43.246Z,4.86
2022-11-24T17:57:44.932Z,4.88
2022-11-24T18:02:46.629Z,4.89
2022-11-24T18:07:48.340Z,4.81
2022-11-24T18:12:50.100Z,4.72
2022-11-24T18:17:52.536Z,4.61
2022-11-24T18:23:09.315Z,4.44
2022-11-24T18:28:11.009Z,4.37
2022-11-24T18:33:12.730Z,4.35
2022-11-24T18:38:14.449Z,4.36
2022-11-24T18:43:16.101Z,4.46
2022-11-24T18:48:17.752Z,4.44
2022-11-24T18:53:20.662Z,4.53
2022-11-24T18:58:24.885Z,4.58
2022-11-24T19:03:26.483Z,4.61
2022-11-24T19:08:28.119Z,4.69
2022-11-24T19:13:29.788Z,4.64
2022-11-24T19:18:31.416Z,4.59
2022-11-24T19:23:33.037Z,4.62
2022-11-24T19:28:34.803Z,4.66
2022-11-24T19:33:36.533Z,4.69
2022-11-24T19:38:38.423Z,4.73
2022-11-24T19:43:40.998Z,4.77
2022-11-24T19:48:44.680Z,4.77
2022-11-24T19:53:46.906Z,4.84
2022-11-24T19:58:48.983Z,4.89
2022-11-24T20:04:00.664Z,4.95
2022-11-24T20:09:03.462Z,4.98
2022-11-24T20:14:06.744Z,5.00
2022-11-24T20:19:11.716Z,4.98
2022-11-24T20:24:16.155Z,4.94
2022-11-24T20:29:18.384Z,4.90
2022-11-24T20:34:20.605Z,4.90
2022-11-24T20:39:27.818Z,4.87
2022-11-24T20:44:30.266Z,4.93
2022-11-24T20:49:31.946Z,4.92
2022-11-24T20:54:33.858Z,4.91
2022-11-24T20:59:35.667Z,4.89
2022-11-24T21:04:37.514Z,4.89
2022-11-24T21:09:39.617Z,4.85
2022-11-24T21:14:41.647Z,4.82
2022-11-24T21:19:43.297Z,4.88
2022-11-24T21:24:44.974Z,4.94
2022-11-24T21:29:46.588Z,4.99
2022-11-24T21:34:48.197Z,5.01
2022-11-24T21:39:49.862Z,5.04
2022-11-24T21:44:51.503Z,5.03
2022-11-24T21:49:53.263Z,5.05
2022-11-24T21:54:54.946Z,5.06
2022-11-24T21:59:56.820Z,5.11
2022-11-24T22:04:58.441Z,5.13
2022-11-24T22:10:00.066Z,5.17
2022-11-24T22:15:01.748Z,5.21
2022-11-24T22:20:03.736Z,5.24
2022-11-24T22:25:05.938Z,5.27
2022-11-24T22:30:08.332Z,5.26
2022-11-24T22:35:09.981Z,5.27
2022-11-24T22:40:11.780Z,5.29
2022-11-24T22:45:13.429Z,5.31
2022-11-24T22:50:15.085Z,5.30
2022-11-24T22:55:16.774Z,5.27
2022-11-24T23:00:18.689Z,5.24
2022-11-24T23:05:20.985Z,5.22
2022-11-24T23:10:23.269Z,5.08
2022-11-24T23:15:24.984Z,5.04
2022-11-24T23:20:26.601Z,4.97
2022-11-24T23:25:28.216Z,4.94
2022-11-24T23:30:30.019Z,4.94
2022-11-24T23:35:33.079Z,4.95
2022-11-24T23:40:34.733Z,4.89
2022-11-24T23:45:36.462Z,4.85
2022-11-24T23:50:38.218Z,4.85
2022-11-24T23:55:39.947Z,4.87
